Time;durP1;ratioP1;P1;durP2;ratioP2;P2;SDS_P1;SDS_P2;PMS_P1;PMS_P2;Temp;Humidity;BMP_temperature;BMP_pressure;BME280_temperature;BME280_humidity;BME280_pressure;Samples;Min_cycle;Max_cycle;Signal;HPM_P1;HPM_P2
2022/11/08 00:02:09;;;;;;;9.30;2.30;;;;;;;;;;4981243;28;20425;-70
2022/11/08 00:04:49;;;;;;;3.00;1.40;;;;;;;;;;4984277;28;20480;-71
2022/11/08 00:15:46;;;;;;;2.47;1.43;;;;;;;;;;4978838;28;20499;-69
2022/11/08 00:18:18;;;;;;;4.23;1.37;;;;;;;;;;4994808;28;20448;-68
2022/11/08 00:21:00;;;;;;;3.30;1.53;;;;;;;;;;4980666;28;20538;-69
2022/11/08 00:23:28;;;;;;;4.77;1.20;;;;;;;;;;4982427;28;20548;-69
2022/11/08 00:25:59;;;;;;;3.97;1.10;;;;;;;;;;4980778;28;20598;-69
2022/11/08 00:28:27;;;;;;;3.70;1.70;;;;;;;;;;4984454;28;20460;-69
2022/11/08 00:31:04;;;;;;;4.17;1.30;;;;;;;;;;4981906;28;20469;-70
2022/11/08 00:33:42;;;;;;;5.07;1.30;;;;;;;;;;4997353;28;20892;-68
2022/11/08 00:36:16;;;;;;;5.67;1.40;;;;;;;;;;4998629;28;20460;-69
2022/11/08 00:38:47;;;;;;;7.13;2.20;;;;;;;;;;4998319;28;20464;-69
2022/11/08 00:41:16;;;;;;;5.63;1.47;;;;;;;;;;4989762;28;20464;-69
2022/11/08 00:43:44;;;;;;;3.87;1.30;;;;;;;;;;4997450;28;20880;-69
2022/11/08 00:46:11;;;;;;;3.97;1.40;;;;;;;;;;4997388;28;20460;-69
2022/11/08 00:48:41;;;;;;;3.53;1.40;;;;;;;;;;4980138;28;20471;-68
2022/11/08 00:51:09;;;;;;;6.30;1.40;;;;;;;;;;4989193;28;20781;-68
2022/11/08 00:53:40;;;;;;;4.83;1.30;;;;;;;;;;4979041;28;20457;-69
2022/11/08 00:56:09;;;;;;;2.33;0.97;;;;;;;;;;4992571;28;20452;-69
2022/11/08 00:58:36;;;;;;;11.40;1.80;;;;;;;;;;4993016;28;20461;-69
2022/11/08 01:01:11;;;;;;;4.40;1.33;;;;;;;;;;4984864;28;20490;-69
2022/11/08 01:03:39;;;;;;;4.67;1.23;;;;;;;;;;4985133;28;20453;-69
2022/11/08 01:06:11;;;;;;;5.57;1.10;;;;;;;;;;4997812;28;20495;-69
2022/11/08 01:08:39;;;;;;;3.47;1.67;;;;;;;;;;4997513;28;20455;-69
2022/11/08 01:11:08;;;;;;;4.17;1.43;;;;;;;;;;4997545;28;20472;-68
2022/11/08 01:13:36;;;;;;;6.00;1.37;;;;;;;;;;4992235;28;20539;-70
2022/11/08 01:16:07;;;;;;;4.30;1.40;;;;;;;;;;4993469;28;20449;-69
2022/11/08 01:18:35;;;;;;;2.53;0.90;;;;;;;;;;4978184;28;20932;-71
2022/11/08 01:21:06;;;;;;;4.67;1.13;;;;;;;;;;4980775;28;20460;-70
2022/11/08 01:23:35;;;;;;;2.17;1.10;;;;;;;;;;4978449;28;20453;-69
2022/11/08 01:26:04;;;;;;;3.50;1.27;;;;;;;;;;4985678;28;21580;-69
2022/11/08 01:28:31;;;;;;;3.13;1.10;;;;;;;;;;4985123;28;20555;-69
2022/11/08 01:31:03;;;;;;;3.97;1.20;;;;;;;;;;4978500;28;20461;-68
2022/11/08 01:33:37;;;;;;;4.20;1.30;;;;;;;;;;4981808;28;20544;-70
2022/11/08 01:36:09;;;;;;;4.23;1.40;;;;;;;;;;4978155;28;20552;-70
2022/11/08 01:38:39;;;;;;;5.47;1.23;;;;;;;;;;4977775;28;20472;-70
2022/11/08 01:41:06;;;;;;;5.80;1.10;;;;;;;;;;4977176;28;20457;-70
2022/11/08 01:43:39;;;;;;;4.23;1.00;;;;;;;;;;4989078;28;20475;-70
2022/11/08 01:46:23;;;;;;;5.93;1.93;;;;;;;;;;4983501;28;20515;-69
2022/11/08 01:48:54;;;;;;;4.43;1.23;;;;;;;;;;4988241;28;20457;-69
2022/11/08 01:51:26;;;;;;;3.10;1.20;;;;;;;;;;4982821;28;20527;-69
2022/11/08 01:53:55;;;;;;;4.50;1.27;;;;;;;;;;4990065;28;20750;-69
2022/11/08 01:56:23;;;;;;;6.30;1.33;;;;;;;;;;4981122;28;20452;-70
2022/11/08 01:58:52;;;;;;;6.67;2.20;;;;;;;;;;4979695;28;20461;-69
2022/11/08 02:01:23;;;;;;;5.93;1.80;;;;;;;;;;4997069;28;20718;-70
2022/11/08 02:03:51;;;;;;;4.20;2.13;;;;;;;;;;4996703;28;20452;-70
2022/11/08 02:06:19;;;;;;;3.00;1.60;;;;;;;;;;4995803;28;20571;-69
2022/11/08 02:08:46;;;;;;;3.80;1.60;;;;;;;;;;4996066;28;20456;-70
2022/11/08 02:11:17;;;;;;;4.00;1.20;;;;;;;;;;4989185;28;20539;-70
2022/11/08 02:13:45;;;;;;;5.10;2.10;;;;;;;;;;4991691;28;20448;-69
2022/11/08 02:16:13;;;;;;;5.17;1.53;;;;;;;;;;4994452;28;20857;-69
2022/11/08 02:18:42;;;;;;;4.30;1.67;;;;;;;;;;4977083;28;20887;-69
2022/11/08 02:21:11;;;;;;;3.57;1.27;;;;;;;;;;4976970;28;20453;-69
2022/11/08 02:23:48;;;;;;;5.67;1.70;;;;;;;;;;4976415;28;20539;-69
2022/11/08 02:26:17;;;;;;;6.20;1.43;;;;;;;;;;4976425;28;20491;-69
2022/11/08 02:28:45;;;;;;;5.77;1.53;;;;;;;;;;4977134;28;20449;-69
2022/11/08 02:31:14;;;;;;;4.13;1.30;;;;;;;;;;4977053;28;20540;-70
2022/11/08 02:33:42;;;;;;;3.17;1.40;;;;;;;;;;4977078;28;20471;-69
2022/11/08 02:36:15;;;;;;;6.00;1.80;;;;;;;;;;4976719;28;20551;-69
2022/11/08 02:38:45;;;;;;;4.87;2.03;;;;;;;;;;4976974;28;20453;-70
2022/11/08 02:41:14;;;;;;;3.20;1.20;;;;;;;;;;4976795;28;20458;-68
2022/11/08 02:43:41;;;;;;;4.73;1.23;;;;;;;;;;4988953;28;20872;-69
2022/11/08 02:46:12;;;;;;;3.30;1.60;;;;;;;;;;4976995;28;20504;-69
2022/11/08 02:48:40;;;;;;;7.43;1.80;;;;;;;;;;4986206;28;20531;-68
2022/11/08 02:51:10;;;;;;;4.53;1.53;;;;;;;;;;4996823;28;20452;-69
2022/11/08 02:53:37;;;;;;;4.37;1.27;;;;;;;;;;4993091;28;20455;-69
2022/11/08 02:56:05;;;;;;;2.67;1.10;;;;;;;;;;4982085;28;20526;-69
2022/11/08 02:58:35;;;;;;;4.93;1.40;;;;;;;;;;4991680;28;20735;-69
2022/11/08 03:01:03;;;;;;;9.67;1.83;;;;;;;;;;4980945;28;20456;-69
2022/11/08 03:03:30;;;;;;;2.97;1.87;;;;;;;;;;4986610;28;20467;-68
2022/11/08 03:05:58;;;;;;;13.17;2.03;;;;;;;;;;4987987;28;20484;-69
2022/11/08 03:08:26;;;;;;;3.37;2.43;;;;;;;;;;4980243;28;20475;-69
2022/11/08 03:10:54;;;;;;;9.03;1.70;;;;;;;;;;4980406;28;20623;-69
2022/11/08 03:13:21;;;;;;;5.53;1.40;;;;;;;;;;4994662;28;20583;-69
2022/11/08 03:15:51;;;;;;;4.77;1.57;;;;;;;;;;4999493;28;20459;-69
2022/11/08 03:18:19;;;;;;;6.93;1.57;;;;;;;;;;4999316;28;20499;-69
2022/11/08 03:20:47;;;;;;;4.10;1.70;;;;;;;;;;4999576;28;20452;-69
2022/11/08 03:23:14;;;;;;;6.37;1.20;;;;;;;;;;4988717;28;20778;-69
2022/11/08 03:25:42;;;;;;;2.03;1.00;;;;;;;;;;4979928;28;20928;-69
2022/11/08 03:28:10;;;;;;;2.60;1.20;;;;;;;;;;4980450;28;20463;-69
2022/11/08 03:30:38;;;;;;;6.93;1.83;;;;;;;;;;4979574;28;20841;-69
2022/11/08 03:33:07;;;;;;;2.80;1.00;;;;;;;;;;4979753;28;20465;-69
2022/11/08 03:35:36;;;;;;;5.90;1.23;;;;;;;;;;4979837;28;20532;-69
2022/11/08 03:38:04;;;;;;;8.03;1.30;;;;;;;;;;4980028;28;20579;-69
2022/11/08 03:40:32;;;;;;;6.33;1.57;;;;;;;;;;4979455;28;20873;-68
2022/11/08 03:42:59;;;;;;;6.13;1.67;;;;;;;;;;4979281;28;20461;-69
2022/11/08 03:45:27;;;;;;;3.30;1.40;;;;;;;;;;4979860;28;20484;-69
2022/11/08 03:47:55;;;;;;;3.50;1.40;;;;;;;;;;4990183;28;20464;-70
2022/11/08 03:50:25;;;;;;;8.73;1.97;;;;;;;;;;4983661;28;20470;-70
2022/11/08 03:52:53;;;;;;;3.80;1.60;;;;;;;;;;4980394;28;20457;-69
2022/11/08 03:55:23;;;;;;;4.80;1.10;;;;;;;;;;4979884;28;20770;-69
2022/11/08 03:57:51;;;;;;;3.10;1.40;;;;;;;;;;4980568;28;20465;-68
2022/11/08 04:00:20;;;;;;;6.97;1.60;;;;;;;;;;4979273;28;20447;-70
2022/11/08 04:02:47;;;;;;;5.73;1.43;;;;;;;;;;4990269;28;20737;-69
2022/11/08 04:05:16;;;;;;;3.30;1.23;;;;;;;;;;4980983;28;20480;-69
2022/11/08 04:07:45;;;;;;;5.17;1.50;;;;;;;;;;4979866;28;20465;-70
2022/11/08 04:10:13;;;;;;;3.93;1.80;;;;;;;;;;4979700;28;20729;-69
2022/11/08 04:15:28;;;;;;;5.07;1.70;;;;;;;;;;4985958;28;20598;-69
2022/11/08 04:23:31;;;;;;;5.40;2.37;;;;;;;;;;4981996;28;20473;-69
2022/11/08 04:25:59;;;;;;;4.93;1.60;;;;;;;;;;4980534;28;20485;-69
2022/11/08 04:28:40;;;;;;;9.20;1.70;;;;;;;;;;4992053;28;20724;-69
2022/11/08 04:31:12;;;;;;;5.77;1.40;;;;;;;;;;4979163;28;20853;-69
2022/11/08 04:33:40;;;;;;;6.80;1.70;;;;;;;;;;4992551;28;20531;-69
2022/11/08 04:36:08;;;;;;;3.17;1.20;;;;;;;;;;4992544;28;20745;-69
2022/11/08 04:38:38;;;;;;;3.97;1.50;;;;;;;;;;4990335;28;20468;-69
2022/11/08 04:41:08;;;;;;;4.57;2.10;;;;;;;;;;4985776;28;21029;-69
2022/11/08 04:43:35;;;;;;;2.67;1.20;;;;;;;;;;4994274;28;20456;-70
2022/11/08 04:46:03;;;;;;;5.77;1.80;;;;;;;;;;4998367;28;20590;-70
2022/11/08 04:48:31;;;;;;;5.50;2.03;;;;;;;;;;4994041;28;20455;-70
2022/11/08 04:51:05;;;;;;;6.50;1.70;;;;;;;;;;4985319;28;20461;-69
2022/11/08 04:53:33;;;;;;;9.30;2.17;;;;;;;;;;4994821;28;20452;-69
2022/11/08 04:56:06;;;;;;;5.70;2.07;;;;;;;;;;4997829;28;20463;-71
2022/11/08 04:58:34;;;;;;;2.60;1.50;;;;;;;;;;4981712;28;20457;-69
2022/11/08 05:01:06;;;;;;;5.50;2.23;;;;;;;;;;4977969;28;20477;-69
2022/11/08 05:03:34;;;;;;;6.97;2.30;;;;;;;;;;4990572;28;20464;-70
2022/11/08 05:06:03;;;;;;;4.50;1.50;;;;;;;;;;4995225;28;20488;-69
2022/11/08 05:08:30;;;;;;;7.73;2.70;;;;;;;;;;4978322;28;20449;-70
2022/11/08 05:11:04;;;;;;;3.57;1.47;;;;;;;;;;4978435;28;20781;-70
2022/11/08 05:13:35;;;;;;;3.97;1.40;;;;;;;;;;4984888;28;20463;-69
2022/11/08 05:16:02;;;;;;;9.40;1.50;;;;;;;;;;4979962;28;20488;-70
2022/11/08 05:18:31;;;;;;;5.23;1.80;;;;;;;;;;4977896;28;20829;-69
2022/11/08 05:23:45;;;;;;;3.57;1.97;;;;;;;;;;4977571;28;20423;-69
2022/11/08 05:26:14;;;;;;;8.60;2.23;;;;;;;;;;4979072;28;20921;-69
2022/11/08 05:28:42;;;;;;;5.63;2.13;;;;;;;;;;4980104;28;20845;-70
2022/11/08 05:31:10;;;;;;;5.27;2.40;;;;;;;;;;4977627;28;20465;-69
2022/11/08 05:33:38;;;;;;;4.90;1.63;;;;;;;;;;4977677;28;20720;-69
2022/11/08 05:36:06;;;;;;;7.97;2.67;;;;;;;;;;4979549;28;20471;-70
2022/11/08 05:38:35;;;;;;;8.73;4.37;;;;;;;;;;4996054;28;20452;-69
2022/11/08 05:41:04;;;;;;;3.30;1.60;;;;;;;;;;4997222;28;20472;-68
2022/11/08 05:43:33;;;;;;;4.30;1.70;;;;;;;;;;4978213;28;20795;-68
2022/11/08 05:46:01;;;;;;;4.03;1.30;;;;;;;;;;4977571;28;20528;-68
2022/11/08 05:48:28;;;;;;;12.03;2.40;;;;;;;;;;4976422;28;20460;-68
2022/11/08 05:50:57;;;;;;;5.60;1.70;;;;;;;;;;4976992;28;20465;-68
2022/11/08 05:53:25;;;;;;;2.43;1.43;;;;;;;;;;4991364;28;20461;-70
2022/11/08 05:55:57;;;;;;;6.47;1.63;;;;;;;;;;4981572;28;20471;-70
2022/11/08 05:58:25;;;;;;;5.77;1.53;;;;;;;;;;4976569;28;20547;-70
2022/11/08 06:00:59;;;;;;;6.47;1.90;;;;;;;;;;4976796;28;20468;-70
2022/11/08 06:03:27;;;;;;;3.67;1.97;;;;;;;;;;4976636;28;20905;-70
2022/11/08 06:05:54;;;;;;;6.43;2.30;;;;;;;;;;4977195;28;20489;-69
2022/11/08 06:08:23;;;;;;;2.20;1.27;;;;;;;;;;4996176;28;20830;-69
2022/11/08 06:10:50;;;;;;;7.40;1.60;;;;;;;;;;4989619;28;20456;-70
2022/11/08 06:13:18;;;;;;;5.70;1.90;;;;;;;;;;4983812;28;20489;-69
2022/11/08 06:15:46;;;;;;;4.47;2.13;;;;;;;;;;4976343;28;20479;-70
2022/11/08 06:18:16;;;;;;;5.93;1.97;;;;;;;;;;4995254;28;20455;-70
2022/11/08 06:20:43;;;;;;;3.20;1.80;;;;;;;;;;4975460;28;20468;-68
2022/11/08 06:23:11;;;;;;;3.63;1.57;;;;;;;;;;4989089;28;20771;-68
2022/11/08 06:25:39;;;;;;;7.27;2.27;;;;;;;;;;4985298;28;20543;-69
2022/11/08 06:28:12;;;;;;;3.63;1.60;;;;;;;;;;4979160;28;20464;-69
2022/11/08 06:30:39;;;;;;;4.07;1.80;;;;;;;;;;4992239;28;20475;-68
2022/11/08 06:33:07;;;;;;;6.20;2.00;;;;;;;;;;4986596;28;20449;-68
2022/11/08 06:35:37;;;;;;;3.20;1.70;;;;;;;;;;4992094;28;20770;-68
2022/11/08 06:38:05;;;;;;;5.63;1.83;;;;;;;;;;4984819;28;20531;-68
2022/11/08 06:40:32;;;;;;;9.77;2.30;;;;;;;;;;4980244;28;21055;-69
2022/11/08 06:43:00;;;;;;;3.93;2.20;;;;;;;;;;4981338;28;20445;-69
2022/11/08 06:45:29;;;;;;;4.20;2.20;;;;;;;;;;4980802;28;20525;-69
2022/11/08 06:47:58;;;;;;;5.57;2.27;;;;;;;;;;4985057;28;20468;-68
2022/11/08 06:50:25;;;;;;;8.70;2.07;;;;;;;;;;4990217;28;20535;-69
2022/11/08 06:52:58;;;;;;;5.00;1.70;;;;;;;;;;4983359;28;20465;-69
2022/11/08 06:55:38;;;;;;;8.50;1.93;;;;;;;;;;4991687;28;20453;-70
2022/11/08 06:58:07;;;;;;;3.70;2.37;;;;;;;;;;4986978;28;21147;-70
2022/11/08 07:00:35;;;;;;;8.00;1.63;;;;;;;;;;4992885;28;20824;-70
2022/11/08 07:03:15;;;;;;;3.60;1.93;;;;;;;;;;4991702;28;20468;-70
2022/11/08 07:05:43;;;;;;;4.87;2.20;;;;;;;;;;4980034;28;20873;-69
2022/11/08 07:08:16;;;;;;;9.20;1.80;;;;;;;;;;4981543;28;20733;-69
2022/11/08 07:10:48;;;;;;;3.23;1.60;;;;;;;;;;4981412;28;20563;-69
2022/11/08 07:13:16;;;;;;;2.80;1.50;;;;;;;;;;4981689;28;20465;-69
2022/11/08 07:15:44;;;;;;;3.73;1.87;;;;;;;;;;4981141;28;20465;-69
2022/11/08 07:18:12;;;;;;;9.57;2.40;;;;;;;;;;4987610;28;20530;-69
2022/11/08 07:20:40;;;;;;;2.90;2.10;;;;;;;;;;4981971;28;20465;-69
2022/11/08 07:23:08;;;;;;;7.13;2.03;;;;;;;;;;4980373;28;20555;-69
2022/11/08 07:25:38;;;;;;;7.60;2.27;;;;;;;;;;4981951;28;21236;-69
2022/11/08 07:28:06;;;;;;;9.77;5.50;;;;;;;;;;4987897;28;20960;-69
2022/11/08 07:30:38;;;;;;;3.70;1.63;;;;;;;;;;4989319;28;20475;-69
2022/11/08 07:33:06;;;;;;;3.60;1.77;;;;;;;;;;4996651;28;20452;-72
2022/11/08 07:38:44;;;;;;;3.93;1.83;;;;;;;;;;4955347;28;20457;-72
2022/11/08 07:41:38;;;;;;;3.60;2.00;;;;;;;;;;4984758;28;20813;-72
2022/11/08 07:44:16;;;;;;;7.60;2.30;;;;;;;;;;4982221;28;20523;-72
2022/11/08 07:46:53;;;;;;;5.70;1.87;;;;;;;;;;4995586;28;20495;-71
2022/11/08 07:49:33;;;;;;;5.13;2.43;;;;;;;;;;4988021;28;20970;-72
2022/11/08 07:52:28;;;;;;;8.97;2.20;;;;;;;;;;4980330;28;20731;-71
2022/11/08 07:55:19;;;;;;;10.30;1.90;;;;;;;;;;4989323;28;20462;-70
2022/11/08 07:58:10;;;;;;;6.30;1.77;;;;;;;;;;4978818;28;20481;-69
2022/11/08 08:01:12;;;;;;;;;;;;;;;;;;;;;
2022/11/08 08:09:53;;;;;;;3.00;1.47;;;;;;;;;;4974300;28;20483;-71
2022/11/08 08:12:32;;;;;;;6.60;1.93;;;;;;;;;;4987191;28;20478;-69
2022/11/08 08:15:05;;;;;;;3.40;1.50;;;;;;;;;;4990686;28;20460;-70
2022/11/08 08:17:42;;;;;;;4.63;1.90;;;;;;;;;;4977724;28;20460;-71
2022/11/08 08:20:27;;;;;;;5.33;1.73;;;;;;;;;;4977688;28;20465;-70
2022/11/08 08:26:06;;;;;;;4.40;2.20;;;;;;;;;;4985085;28;20477;-71
2022/11/08 08:28:37;;;;;;;10.90;2.07;;;;;;;;;;4978057;28;20755;-69
2022/11/08 08:31:13;;;;;;;16.83;3.13;;;;;;;;;;4987428;28;20472;-69
2022/11/08 08:33:45;;;;;;;6.40;1.73;;;;;;;;;;4991803;28;20465;-69
2022/11/08 08:36:13;;;;;;;7.00;1.70;;;;;;;;;;4995961;28;20895;-69
2022/11/08 08:38:56;;;;;;;6.03;2.00;;;;;;;;;;4980559;28;20893;-71
2022/11/08 08:41:44;;;;;;;6.97;1.73;;;;;;;;;;4977273;28;20528;-70
2022/11/08 08:44:24;;;;;;;3.10;1.67;;;;;;;;;;4988238;28;20499;-72
2022/11/08 08:47:17;;;;;;;5.07;2.27;;;;;;;;;;4996457;28;20484;-72
2022/11/08 08:49:48;;;;;;;4.57;1.63;;;;;;;;;;4991413;28;20531;-71
2022/11/08 08:52:17;;;;;;;2.53;1.50;;;;;;;;;;4987803;28;20469;-73
2022/11/08 08:57:46;;;;;;;4.30;2.10;;;;;;;;;;4978186;28;20520;-71
2022/11/08 09:00:19;;;;;;;3.80;1.97;;;;;;;;;;4989716;28;20482;-70
2022/11/08 09:02:53;;;;;;;2.67;1.30;;;;;;;;;;4984833;28;20473;-69
2022/11/08 09:05:21;;;;;;;3.37;1.70;;;;;;;;;;4987567;28;20483;-68
2022/11/08 09:08:13;;;;;;;3.00;1.30;;;;;;;;;;4996027;28;20503;-69
2022/11/08 09:11:03;;;;;;;8.53;2.13;;;;;;;;;;4982220;28;20533;-70
2022/11/08 09:13:43;;;;;;;5.70;2.77;;;;;;;;;;4970652;28;20878;-69
2022/11/08 09:16:17;;;;;;;3.83;1.43;;;;;;;;;;4976081;28;20461;-70
2022/11/08 09:18:49;;;;;;;7.90;2.10;;;;;;;;;;4984960;28;20498;-70
2022/11/08 09:21:17;;;;;;;4.50;1.67;;;;;;;;;;4976486;28;20857;-69
2022/11/08 09:23:44;;;;;;;3.57;2.20;;;;;;;;;;4979691;28;20472;-69
2022/11/08 09:26:17;;;;;;;5.80;2.80;;;;;;;;;;4980997;28;20470;-70
2022/11/08 09:28:47;;;;;;;6.40;1.50;;;;;;;;;;4983917;28;20476;-69
2022/11/08 09:31:36;;;;;;;6.37;1.90;;;;;;;;;;4974875;28;20533;-70
2022/11/08 09:34:14;;;;;;;5.30;1.67;;;;;;;;;;4975483;28;20453;-69
2022/11/08 09:37:08;;;;;;;3.30;2.00;;;;;;;;;;4980244;28;20436;-69
2022/11/08 09:39:42;;;;;;;2.97;1.30;;;;;;;;;;4976221;28;20457;-68
2022/11/08 09:42:20;;;;;;;4.23;1.27;;;;;;;;;;4974850;28;20771;-69
2022/11/08 09:45:08;;;;;;;3.93;1.37;;;;;;;;;;4976100;28;20504;-70
2022/11/08 09:47:37;;;;;;;4.90;2.03;;;;;;;;;;4980609;28;20500;-68
2022/11/08 09:50:12;;;;;;;8.13;2.57;;;;;;;;;;4984729;28;20884;-70
2022/11/08 09:52:50;;;;;;;4.47;1.70;;;;;;;;;;4981944;28;20463;-69
2022/11/08 09:55:24;;;;;;;8.57;2.00;;;;;;;;;;4974742;28;20481;-69
2022/11/08 09:58:09;;;;;;;3.43;1.50;;;;;;;;;;4975175;28;20464;-70
2022/11/08 10:00:43;;;;;;;9.03;2.60;;;;;;;;;;4976178;28;20465;-69
2022/11/08 10:03:19;;;;;;;5.83;1.63;;;;;;;;;;4976862;28;21139;-70
2022/11/08 10:06:08;;;;;;;8.60;1.60;;;;;;;;;;4982536;28;20571;-70
2022/11/08 10:08:44;;;;;;;4.77;1.80;;;;;;;;;;4984006;28;20558;-70
2022/11/08 10:11:19;;;;;;;4.40;1.80;;;;;;;;;;4996194;28;20570;-68
2022/11/08 10:14:21;;;;;;;7.30;1.60;;;;;;;;;;4974542;28;20468;-68
2022/11/08 10:17:14;;;;;;;3.60;1.90;;;;;;;;;;4993298;28;20882;-70
2022/11/08 10:19:50;;;;;;;5.57;3.53;;;;;;;;;;4981751;28;20897;-71
2022/11/08 10:22:26;;;;;;;3.30;1.70;;;;;;;;;;4978673;28;20449;-69
2022/11/08 10:25:07;;;;;;;9.30;3.07;;;;;;;;;;4978736;28;20790;-70
2022/11/08 10:27:52;;;;;;;6.30;1.73;;;;;;;;;;4975580;28;20492;-70
2022/11/08 10:30:36;;;;;;;7.43;2.30;;;;;;;;;;4977129;28;20437;-72
2022/11/08 10:33:25;;;;;;;7.03;3.00;;;;;;;;;;4976103;28;20467;-70
2022/11/08 10:36:04;;;;;;;6.20;2.13;;;;;;;;;;4974807;28;20480;-71
2022/11/08 10:38:44;;;;;;;6.77;1.50;;;;;;;;;;4977514;28;21103;-70
2022/11/08 10:44:14;;;;;;;3.03;1.43;;;;;;;;;;4974548;28;20460;-73
2022/11/08 10:46:45;;;;;;;3.30;1.50;;;;;;;;;;4974994;28;20527;-73
2022/11/08 10:49:18;;;;;;;8.07;1.60;;;;;;;;;;4984327;28;20459;-70
2022/11/08 10:52:06;;;;;;;3.00;1.73;;;;;;;;;;4983012;28;20848;-71
2022/11/08 10:54:53;;;;;;;4.70;1.70;;;;;;;;;;4982279;28;20476;-72
2022/11/08 10:57:41;;;;;;;3.27;1.40;;;;;;;;;;4994431;28;21112;-71
2022/11/08 11:00:37;;;;;;;3.33;1.30;;;;;;;;;;4993700;28;20467;-71
2022/11/08 11:03:33;;;;;;;3.73;1.50;;;;;;;;;;4993483;28;20547;-71
2022/11/08 11:06:28;;;;;;;4.33;1.97;;;;;;;;;;4983274;28;20519;-71
2022/11/08 11:09:23;;;;;;;4.20;2.17;;;;;;;;;;4990199;28;20493;-71
2022/11/08 11:11:58;;;;;;;4.70;1.53;;;;;;;;;;4985974;28;20456;-70
2022/11/08 11:14:27;;;;;;;4.00;1.80;;;;;;;;;;4988956;28;20452;-72
2022/11/08 11:16:58;;;;;;;5.03;1.60;;;;;;;;;;4977651;28;20457;-72
2022/11/08 11:19:32;;;;;;;9.97;2.70;;;;;;;;;;4978080;28;20467;-73
2022/11/08 11:22:03;;;;;;;3.03;1.43;;;;;;;;;;4978223;28;20456;-68
2022/11/08 11:24:36;;;;;;;4.63;2.37;;;;;;;;;;4978479;28;20576;-69
2022/11/08 11:27:30;;;;;;;4.33;1.20;;;;;;;;;;4980671;28;20478;-70
2022/11/08 11:30:20;;;;;;;3.50;1.80;;;;;;;;;;4978194;28;20473;-70
2022/11/08 11:33:20;;;;;;;2.60;0.90;;;;;;;;;;4977314;28;20457;-71
2022/11/08 11:35:54;;;;;;;3.47;1.13;;;;;;;;;;4976738;28;20472;-70
2022/11/08 11:38:29;;;;;;;3.43;1.20;;;;;;;;;;4976850;28;20449;-69
2022/11/08 11:41:04;;;;;;;6.87;3.93;;;;;;;;;;4985561;28;20464;-68
2022/11/08 11:43:36;;;;;;;1.73;0.90;;;;;;;;;;4990086;28;20451;-70
2022/11/08 11:46:11;;;;;;;3.90;1.33;;;;;;;;;;4988001;28;20465;-70
2022/11/08 11:48:55;;;;;;;6.20;1.63;;;;;;;;;;4976942;28;20488;-69
2022/11/08 11:51:33;;;;;;;3.10;1.10;;;;;;;;;;4981385;28;20470;-69
2022/11/08 11:54:05;;;;;;;2.87;1.37;;;;;;;;;;4992029;28;20452;-68
2022/11/08 11:59:56;;;;;;;3.43;1.10;;;;;;;;;;4981404;28;20445;-67
2022/11/08 12:02:55;;;;;;;2.90;1.00;;;;;;;;;;4985478;28;20472;-69
2022/11/08 12:05:32;;;;;;;4.97;1.73;;;;;;;;;;4977200;28;20466;-67
2022/11/08 12:08:17;;;;;;;4.20;1.50;;;;;;;;;;4987751;28;20487;-68
2022/11/08 12:10:59;;;;;;;3.13;1.30;;;;;;;;;;4978896;28;20495;-69
2022/11/08 12:13:41;;;;;;;6.20;1.23;;;;;;;;;;4980970;28;20465;-68
2022/11/08 12:16:29;;;;;;;3.50;1.60;;;;;;;;;;4978194;28;20473;-69
2022/11/08 12:19:10;;;;;;;3.50;1.40;;;;;;;;;;4983862;28;20534;-69
2022/11/08 12:21:52;;;;;;;3.03;1.40;;;;;;;;;;4977094;28;20481;-69
2022/11/08 12:24:32;;;;;;;3.23;1.23;;;;;;;;;;4978711;28;20460;-67
2022/11/08 12:27:15;;;;;;;2.53;1.03;;;;;;;;;;4976793;28;21154;-72
2022/11/08 12:30:15;;;;;;;4.82;1.40;;;;;;;;;;4992210;28;20463;-72
2022/11/08 12:33:00;;;;;;;4.90;1.63;;;;;;;;;;4970600;28;20206;-71
2022/11/08 12:35:52;;;;;;;3.83;1.40;;;;;;;;;;4976776;28;20761;-73
2022/11/08 12:38:45;;;;;;;;;;;;;;;;;;;;;
2022/11/08 12:41:33;;;;;;;3.73;1.50;;;;;;;;;;4979712;28;20473;-72
2022/11/08 12:44:31;;;;;;;4.18;1.60;;;;;;;;;;4978902;28;20846;-70
2022/11/08 12:47:18;;;;;;;4.10;1.60;;;;;;;;;;4961058;28;20210;-71
2022/11/08 12:55:57;;;;;;;2.87;1.73;;;;;;;;;;4983964;28;20461;-74
2022/11/08 13:04:34;;;;;;;3.83;1.30;;;;;;;;;;4980805;28;20550;-74
2022/11/08 13:07:08;;;;;;;2.60;1.60;;;;;;;;;;4975883;28;20971;-74
2022/11/08 13:09:39;;;;;;;4.33;1.63;;;;;;;;;;4980573;28;20488;-73
2022/11/08 13:12:14;;;;;;;5.20;1.87;;;;;;;;;;4994135;28;20466;-74
2022/11/08 13:14:42;;;;;;;1.93;1.00;;;;;;;;;;4985811;28;20496;-73
2022/11/08 13:17:22;;;;;;;3.60;1.07;;;;;;;;;;4978517;28;20943;-74
2022/11/08 13:19:58;;;;;;;2.70;1.30;;;;;;;;;;4983886;28;20555;-73
2022/11/08 13:22:46;;;;;;;3.97;1.60;;;;;;;;;;4978400;28;20449;-72
2022/11/08 13:25:33;;;;;;;3.80;1.00;;;;;;;;;;4985522;28;20726;-73
2022/11/08 13:28:26;;;;;;;5.23;2.20;;;;;;;;;;4996712;28;20488;-74
2022/11/08 13:31:05;;;;;;;3.87;2.43;;;;;;;;;;4987079;28;20574;-73
2022/11/08 13:37:17;;;;;;;9.47;1.73;;;;;;;;;;4922479;29;20467;-78
2022/11/08 13:43:12;;;;;;;3.20;1.37;;;;;;;;;;4876483;28;20582;-74
2022/11/08 13:45:48;;;;;;;3.70;1.47;;;;;;;;;;4992261;28;20522;-73
2022/11/08 13:48:37;;;;;;;4.57;1.20;;;;;;;;;;4977512;28;20487;-74
2022/11/08 13:51:41;;;;;;;3.00;1.50;;;;;;;;;;4987104;28;20483;-72
2022/11/08 13:54:36;;;;;;;3.57;1.87;;;;;;;;;;4906637;29;20526;-72
2022/11/08 14:00:35;;;;;;;2.83;1.60;;;;;;;;;;4898326;29;20459;-73
2022/11/08 14:03:34;;;;;;;2.57;1.63;;;;;;;;;;4896192;29;21180;-72
2022/11/08 14:06:06;;;;;;;3.23;1.33;;;;;;;;;;4949459;28;20758;-72
2022/11/08 14:08:51;;;;;;;5.50;1.63;;;;;;;;;;4983111;28;20602;-72
2022/11/08 14:11:41;;;;;;;2.87;1.00;;;;;;;;;;4989315;28;20886;-72
2022/11/08 14:14:16;;;;;;;2.90;1.50;;;;;;;;;;4981019;28;20452;-72
2022/11/08 14:17:03;;;;;;;2.90;1.13;;;;;;;;;;4979275;28;20463;-71
2022/11/08 14:19:39;;;;;;;2.70;1.33;;;;;;;;;;4990963;28;20539;-71
2022/11/08 14:22:15;;;;;;;4.83;1.80;;;;;;;;;;4988106;28;20488;-73
2022/11/08 14:24:43;;;;;;;4.30;1.40;;;;;;;;;;4995244;28;20451;-71
2022/11/08 14:27:16;;;;;;;4.10;1.50;;;;;;;;;;4991097;28;20448;-71
2022/11/08 14:29:46;;;;;;;5.97;2.57;;;;;;;;;;4994441;28;20559;-72
2022/11/08 14:32:26;;;;;;;2.70;1.40;;;;;;;;;;4994883;28;20455;-72
2022/11/08 14:37:54;;;;;;;5.73;1.50;;;;;;;;;;4913492;29;20903;-71
2022/11/08 14:40:31;;;;;;;2.53;1.50;;;;;;;;;;4972010;28;20461;-70
2022/11/08 14:43:02;;;;;;;3.20;1.23;;;;;;;;;;4979214;28;20825;-70
2022/11/08 14:45:41;;;;;;;3.73;1.50;;;;;;;;;;4984357;28;20719;-71
2022/11/08 14:48:22;;;;;;;2.33;1.37;;;;;;;;;;4983180;28;20609;-71
2022/11/08 14:50:54;;;;;;;3.43;1.60;;;;;;;;;;4982655;28;20547;-72
2022/11/08 14:53:25;;;;;;;2.07;1.00;;;;;;;;;;4988630;28;20475;-71
2022/11/08 14:56:16;;;;;;;3.00;1.20;;;;;;;;;;4986818;28;20585;-71
2022/11/08 14:58:50;;;;;;;2.43;1.60;;;;;;;;;;4998509;28;20843;-71
2022/11/08 15:01:22;;;;;;;4.13;1.37;;;;;;;;;;4982397;28;20452;-72
2022/11/08 15:03:56;;;;;;;4.33;1.30;;;;;;;;;;4988557;28;20463;-72
2022/11/08 15:06:30;;;;;;;2.13;0.93;;;;;;;;;;4986263;28;20464;-71
2022/11/08 15:09:01;;;;;;;2.10;1.00;;;;;;;;;;4997197;28;20762;-71
2022/11/08 15:11:30;;;;;;;3.00;1.37;;;;;;;;;;4981631;28;20475;-72
2022/11/08 15:14:01;;;;;;;3.03;1.53;;;;;;;;;;4977667;28;20869;-73
2022/11/08 15:16:38;;;;;;;3.27;1.27;;;;;;;;;;4978080;28;20453;-72
2022/11/08 15:19:18;;;;;;;2.10;0.97;;;;;;;;;;4977090;28;20456;-72
2022/11/08 15:21:50;;;;;;;3.73;1.37;;;;;;;;;;4987290;28;20526;-72
2022/11/08 15:24:42;;;;;;;1.90;1.00;;;;;;;;;;4995062;28;20539;-72
2022/11/08 15:27:30;;;;;;;2.00;1.20;;;;;;;;;;4989308;28;20456;-70
2022/11/08 15:30:04;;;;;;;2.60;1.00;;;;;;;;;;4998021;28;20480;-71
2022/11/08 15:32:51;;;;;;;3.03;1.17;;;;;;;;;;4989890;28;20477;-70
2022/11/08 15:35:38;;;;;;;4.00;1.40;;;;;;;;;;4983331;28;20475;-72
2022/11/08 15:38:08;;;;;;;2.63;1.23;;;;;;;;;;4984480;28;20558;-72
2022/11/08 15:40:53;;;;;;;4.23;1.80;;;;;;;;;;4990833;28;20456;-72
2022/11/08 15:43:43;;;;;;;3.20;1.13;;;;;;;;;;4984774;28;20472;-73
2022/11/08 15:46:43;;;;;;;2.50;1.23;;;;;;;;;;4991806;28;20535;-72
2022/11/08 15:49:23;;;;;;;3.20;1.77;;;;;;;;;;4997768;28;20476;-71
2022/11/08 15:51:51;;;;;;;6.20;3.40;;;;;;;;;;4993512;28;20468;-72
2022/11/08 15:54:20;;;;;;;4.27;2.57;;;;;;;;;;4995420;28;20464;-71
2022/11/08 16:02:35;;;;;;;2.50;1.40;;;;;;;;;;4979883;28;20479;-72
2022/11/08 16:05:06;;;;;;;2.87;1.33;;;;;;;;;;4978750;28;20788;-70
2022/11/08 16:07:36;;;;;;;2.70;1.53;;;;;;;;;;4991391;28;20526;-71
2022/11/08 16:10:08;;;;;;;5.03;1.30;;;;;;;;;;4982471;28;20588;-71
2022/11/08 16:12:38;;;;;;;2.60;1.60;;;;;;;;;;4981512;28;20496;-72
2022/11/08 16:15:12;;;;;;;2.90;1.50;;;;;;;;;;4979276;28;20464;-72
2022/11/08 16:17:45;;;;;;;5.80;1.63;;;;;;;;;;4978118;28;20556;-73
2022/11/08 16:20:44;;;;;;;4.37;1.60;;;;;;;;;;4981006;28;20445;-72
2022/11/08 16:23:22;;;;;;;3.77;1.97;;;;;;;;;;4985579;28;20448;-72
2022/11/08 16:25:59;;;;;;;3.60;1.53;;;;;;;;;;4981889;28;20461;-71
2022/11/08 16:28:56;;;;;;;4.03;1.53;;;;;;;;;;4979065;28;20465;-71
2022/11/08 16:31:26;;;;;;;4.10;1.90;;;;;;;;;;4985998;28;20445;-71
2022/11/08 16:33:54;;;;;;;3.40;2.07;;;;;;;;;;4986344;28;20469;-72
2022/11/08 16:36:23;;;;;;;8.23;2.30;;;;;;;;;;4984513;28;21206;-71
2022/11/08 16:38:53;;;;;;;5.20;2.80;;;;;;;;;;4983098;28;20484;-71
2022/11/08 16:41:22;;;;;;;4.13;2.37;;;;;;;;;;4985029;28;21066;-71
2022/11/08 16:44:02;;;;;;;5.97;3.40;;;;;;;;;;4981859;28;20489;-70